sensor_id;sensor_type;location;lat;lon;timestamp;temperature;humidity
45283;DHT22;31023;44.994;1.796;2022-10-18T00:00:42;18.10;99.90
45283;DHT22;31023;44.994;1.796;2022-10-18T00:03:08;18.20;99.90
45283;DHT22;31023;44.994;1.796;2022-10-18T00:05:34;18.10;99.90
45283;DHT22;31023;44.994;1.796;2022-10-18T00:07:59;18.10;99.90
45283;DHT22;31023;44.994;1.796;2022-10-18T00:10:25;18.10;99.90
45283;DHT22;31023;44.994;1.796;2022-10-18T00:12:51;18.00;99.90
45283;DHT22;31023;44.994;1.796;2022-10-18T00:15:16;17.90;99.90
45283;DHT22;31023;44.994;1.796;2022-10-18T00:17:42;18.00;99.90
45283;DHT22;31023;44.994;1.796;2022-10-18T00:20:08;18.10;99.90
45283;DHT22;31023;44.994;1.796;2022-10-18T00:22:34;18.10;99.90
45283;DHT22;31023;44.994;1.796;2022-10-18T00:25:00;18.00;99.90
45283;DHT22;31023;44.994;1.796;2022-10-18T00:27:28;17.90;99.90
45283;DHT22;31023;44.994;1.796;2022-10-18T00:29:53;17.90;99.90
45283;DHT22;31023;44.994;1.796;2022-10-18T00:32:19;18.00;99.90
45283;DHT22;31023;44.994;1.796;2022-10-18T00:34:44;18.00;99.90
45283;DHT22;31023;44.994;1.796;2022-10-18T00:37:10;17.90;99.90
45283;DHT22;31023;44.994;1.796;2022-10-18T00:39:35;17.70;99.90
45283;DHT22;31023;44.994;1.796;2022-10-18T00:42:01;17.60;99.90
45283;DHT22;31023;44.994;1.796;2022-10-18T00:47:01;17.40;99.90
45283;DHT22;31023;44.994;1.796;2022-10-18T00:49:29;17.40;99.90
45283;DHT22;31023;44.994;1.796;2022-10-18T00:52:03;17.40;99.90
45283;DHT22;31023;44.994;1.796;2022-10-18T00:54:30;17.40;99.90
45283;DHT22;31023;44.994;1.796;2022-10-18T00:56:56;17.60;99.90
45283;DHT22;31023;44.994;1.796;2022-10-18T00:59:21;17.60;99.90
45283;DHT22;31023;44.994;1.796;2022-10-18T01:01:47;17.60;99.90
45283;DHT22;31023;44.994;1.796;2022-10-18T01:04:13;17.70;99.90
45283;DHT22;31023;44.994;1.796;2022-10-18T01:06:42;17.80;99.90
45283;DHT22;31023;44.994;1.796;2022-10-18T01:09:20;17.80;99.90
45283;DHT22;31023;44.994;1.796;2022-10-18T01:12:11;17.80;99.90
45283;DHT22;31023;44.994;1.796;2022-10-18T01:14:47;17.80;99.90
45283;DHT22;31023;44.994;1.796;2022-10-18T01:17:22;17.80;99.90
45283;DHT22;31023;44.994;1.796;2022-10-18T01:20:06;17.80;99.90
45283;DHT22;31023;44.994;1.796;2022-10-18T01:22:41;17.70;99.90
45283;DHT22;31023;44.994;1.796;2022-10-18T01:27:44;17.60;99.90
45283;DHT22;31023;44.994;1.796;2022-10-18T01:30:31;17.50;99.90
45283;DHT22;31023;44.994;1.796;2022-10-18T01:33:10;17.50;99.90
45283;DHT22;31023;44.994;1.796;2022-10-18T01:35:38;17.30;99.90
45283;DHT22;31023;44.994;1.796;2022-10-18T01:38:06;17.40;99.90
45283;DHT22;31023;44.994;1.796;2022-10-18T01:40:35;17.40;99.90
45283;DHT22;31023;44.994;1.796;2022-10-18T01:43:02;17.40;99.90
45283;DHT22;31023;44.994;1.796;2022-10-18T01:45:28;17.30;99.90
45283;DHT22;31023;44.994;1.796;2022-10-18T01:47:55;17.20;99.90
45283;DHT22;31023;44.994;1.796;2022-10-18T01:50:30;17.20;99.90
45283;DHT22;31023;44.994;1.796;2022-10-18T01:52:56;17.30;99.90
45283;DHT22;31023;44.994;1.796;2022-10-18T01:55:24;17.20;99.90
45283;DHT22;31023;44.994;1.796;2022-10-18T02:00:23;17.30;99.90
45283;DHT22;31023;44.994;1.796;2022-10-18T02:05:29;17.50;99.90
45283;DHT22;31023;44.994;1.796;2022-10-18T02:07:59;17.50;99.90
45283;DHT22;31023;44.994;1.796;2022-10-18T02:10:28;17.50;99.90
45283;DHT22;31023;44.994;1.796;2022-10-18T02:12:55;17.50;99.90
45283;DHT22;31023;44.994;1.796;2022-10-18T02:15:23;17.40;99.90
45283;DHT22;31023;44.994;1.796;2022-10-18T02:17:50;17.40;99.90
45283;DHT22;31023;44.994;1.796;2022-10-18T02:20:19;17.30;99.90
45283;DHT22;31023;44.994;1.796;2022-10-18T02:22:45;17.30;99.90
45283;DHT22;31023;44.994;1.796;2022-10-18T02:25:12;17.30;99.90
45283;DHT22;31023;44.994;1.796;2022-10-18T02:27:39;17.40;99.90
45283;DHT22;31023;44.994;1.796;2022-10-18T02:30:05;17.40;99.90
45283;DHT22;31023;44.994;1.796;2022-10-18T02:32:33;17.40;99.90
45283;DHT22;31023;44.994;1.796;2022-10-18T02:37:29;17.20;99.90
45283;DHT22;31023;44.994;1.796;2022-10-18T02:39:55;17.20;99.90
45283;DHT22;31023;44.994;1.796;2022-10-18T02:42:21;17.20;99.90
45283;DHT22;31023;44.994;1.796;2022-10-18T02:44:46;17.30;99.90
45283;DHT22;31023;44.994;1.796;2022-10-18T02:47:12;17.30;99.90
45283;DHT22;31023;44.994;1.796;2022-10-18T02:49:37;17.20;99.90
45283;DHT22;31023;44.994;1.796;2022-10-18T02:52:03;17.20;99.90
45283;DHT22;31023;44.994;1.796;2022-10-18T02:54:29;17.30;99.90
45283;DHT22;31023;44.994;1.796;2022-10-18T02:56:54;17.20;99.90
45283;DHT22;31023;44.994;1.796;2022-10-18T02:59:20;17.30;99.90
45283;DHT22;31023;44.994;1.796;2022-10-18T03:01:45;17.50;99.90
45283;DHT22;31023;44.994;1.796;2022-10-18T03:04:11;17.50;99.90
45283;DHT22;31023;44.994;1.796;2022-10-18T03:06:36;17.40;99.90
45283;DHT22;31023;44.994;1.796;2022-10-18T03:09:03;17.30;99.90
45283;DHT22;31023;44.994;1.796;2022-10-18T03:11:29;17.20;99.90
45283;DHT22;31023;44.994;1.796;2022-10-18T03:13:54;17.00;99.90
45283;DHT22;31023;44.994;1.796;2022-10-18T03:16:20;17.00;99.90
45283;DHT22;31023;44.994;1.796;2022-10-18T03:18:46;16.90;99.90
45283;DHT22;31023;44.994;1.796;2022-10-18T03:21:11;16.80;99.90
45283;DHT22;31023;44.994;1.796;2022-10-18T03:23:37;16.80;99.90
45283;DHT22;31023;44.994;1.796;2022-10-18T03:26:02;16.70;99.90
45283;DHT22;31023;44.994;1.796;2022-10-18T03:28:28;16.60;99.90
45283;DHT22;31023;44.994;1.796;2022-10-18T03:30:58;16.60;99.90
45283;DHT22;31023;44.994;1.796;2022-10-18T03:33:24;16.60;99.90
45283;DHT22;31023;44.994;1.796;2022-10-18T03:35:49;16.60;99.90
45283;DHT22;31023;44.994;1.796;2022-10-18T03:38:15;16.50;99.90
45283;DHT22;31023;44.994;1.796;2022-10-18T03:40:41;16.60;99.90
45283;DHT22;31023;44.994;1.796;2022-10-18T03:43:06;16.70;99.90
45283;DHT22;31023;44.994;1.796;2022-10-18T03:45:32;16.70;99.90
45283;DHT22;31023;44.994;1.796;2022-10-18T03:47:57;16.70;99.90
45283;DHT22;31023;44.994;1.796;2022-10-18T03:50:23;16.90;99.90
45283;DHT22;31023;44.994;1.796;2022-10-18T03:52:48;16.80;99.90
45283;DHT22;31023;44.994;1.796;2022-10-18T03:55:14;16.80;99.90
45283;DHT22;31023;44.994;1.796;2022-10-18T03:57:39;16.80;99.90
45283;DHT22;31023;44.994;1.796;2022-10-18T04:00:05;16.70;99.90
45283;DHT22;31023;44.994;1.796;2022-10-18T04:02:31;16.80;99.90
45283;DHT22;31023;44.994;1.796;2022-10-18T04:04:56;16.80;99.90
45283;DHT22;31023;44.994;1.796;2022-10-18T04:07:23;16.80;99.90
45283;DHT22;31023;44.994;1.796;2022-10-18T04:09:48;16.80;99.90
45283;DHT22;31023;44.994;1.796;2022-10-18T04:12:14;16.90;99.90
45283;DHT22;31023;44.994;1.796;2022-10-18T04:14:39;16.90;99.90
45283;DHT22;31023;44.994;1.796;2022-10-18T04:17:05;16.80;99.90
45283;DHT22;31023;44.994;1.796;2022-10-18T04:19:30;16.80;99.90
45283;DHT22;31023;44.994;1.796;2022-10-18T04:21:56;16.80;99.90
45283;DHT22;31023;44.994;1.796;2022-10-18T04:24:21;16.70;99.90
45283;DHT22;31023;44.994;1.796;2022-10-18T04:26:47;16.80;99.90
45283;DHT22;31023;44.994;1.796;2022-10-18T04:29:12;16.90;99.90
45283;DHT22;31023;44.994;1.796;2022-10-18T04:31:38;17.10;99.90
45283;DHT22;31023;44.994;1.796;2022-10-18T04:34:03;17.10;99.90
45283;DHT22;31023;44.994;1.796;2022-10-18T04:36:29;17.20;99.90
45283;DHT22;31023;44.994;1.796;2022-10-18T04:38:55;17.20;99.90
45283;DHT22;31023;44.994;1.796;2022-10-18T04:41:21;17.20;99.90
45283;DHT22;31023;44.994;1.796;2022-10-18T04:43:46;17.40;99.90
45283;DHT22;31023;44.994;1.796;2022-10-18T04:46:12;17.30;99.90
45283;DHT22;31023;44.994;1.796;2022-10-18T04:48:37;17.10;99.90
45283;DHT22;31023;44.994;1.796;2022-10-18T04:51:03;17.10;99.90
45283;DHT22;31023;44.994;1.796;2022-10-18T04:53:29;17.20;99.90
45283;DHT22;31023;44.994;1.796;2022-10-18T04:55:54;17.10;99.90
45283;DHT22;31023;44.994;1.796;2022-10-18T04:58:20;17.10;99.90
45283;DHT22;31023;44.994;1.796;2022-10-18T05:00:45;17.10;99.90
45283;DHT22;31023;44.994;1.796;2022-10-18T05:03:12;17.20;99.90
45283;DHT22;31023;44.994;1.796;2022-10-18T05:05:38;17.10;99.90
45283;DHT22;31023;44.994;1.796;2022-10-18T05:08:03;16.90;99.90
45283;DHT22;31023;44.994;1.796;2022-10-18T05:10:29;17.10;99.90
45283;DHT22;31023;44.994;1.796;2022-10-18T05:12:54;17.00;99.90
45283;DHT22;31023;44.994;1.796;2022-10-18T05:15:20;16.90;99.90
45283;DHT22;31023;44.994;1.796;2022-10-18T05:17:46;16.80;99.90
45283;DHT22;31023;44.994;1.796;2022-10-18T05:20:11;16.70;99.90
45283;DHT22;31023;44.994;1.796;2022-10-18T05:22:37;16.60;99.90
45283;DHT22;31023;44.994;1.796;2022-10-18T05:25:02;16.60;99.90
45283;DHT22;31023;44.994;1.796;2022-10-18T05:27:28;16.60;99.90
45283;DHT22;31023;44.994;1.796;2022-10-18T05:29:53;16.60;99.90
45283;DHT22;31023;44.994;1.796;2022-10-18T05:32:19;16.60;99.90
45283;DHT22;31023;44.994;1.796;2022-10-18T05:34:44;16.60;99.90
45283;DHT22;31023;44.994;1.796;2022-10-18T05:37:10;16.60;99.90
45283;DHT22;31023;44.994;1.796;2022-10-18T05:39:36;16.50;99.90
45283;DHT22;31023;44.994;1.796;2022-10-18T05:42:02;16.50;99.90
45283;DHT22;31023;44.994;1.796;2022-10-18T05:44:28;16.60;99.90
45283;DHT22;31023;44.994;1.796;2022-10-18T05:46:54;16.60;99.90
45283;DHT22;31023;44.994;1.796;2022-10-18T05:49:19;16.60;99.90
45283;DHT22;31023;44.994;1.796;2022-10-18T05:51:45;16.60;99.90
45283;DHT22;31023;44.994;1.796;2022-10-18T05:54:10;16.60;99.90
45283;DHT22;31023;44.994;1.796;2022-10-18T05:56:36;16.50;99.90
45283;DHT22;31023;44.994;1.796;2022-10-18T05:59:01;16.50;99.90
45283;DHT22;31023;44.994;1.796;2022-10-18T06:01:29;16.60;99.90
45283;DHT22;31023;44.994;1.796;2022-10-18T06:03:55;16.50;99.90
45283;DHT22;31023;44.994;1.796;2022-10-18T06:06:20;16.50;99.90
45283;DHT22;31023;44.994;1.796;2022-10-18T06:08:47;16.40;99.90
45283;DHT22;31023;44.994;1.796;2022-10-18T06:11:14;16.50;99.90
45283;DHT22;31023;44.994;1.796;2022-10-18T06:13:40;16.60;99.90
45283;DHT22;31023;44.994;1.796;2022-10-18T06:16:06;16.60;99.90
45283;DHT22;31023;44.994;1.796;2022-10-18T06:18:32;16.60;99.90
45283;DHT22;31023;44.994;1.796;2022-10-18T06:20:58;16.80;99.90
45283;DHT22;31023;44.994;1.796;2022-10-18T06:23:24;16.80;99.90
45283;DHT22;31023;44.994;1.796;2022-10-18T06:25:50;16.90;99.90
45283;DHT22;31023;44.994;1.796;2022-10-18T06:28:15;17.00;99.90
45283;DHT22;31023;44.994;1.796;2022-10-18T06:30:41;17.30;99.90
45283;DHT22;31023;44.994;1.796;2022-10-18T06:33:06;17.40;99.90
45283;DHT22;31023;44.994;1.796;2022-10-18T06:35:32;17.60;99.90
45283;DHT22;31023;44.994;1.796;2022-10-18T06:37:57;17.80;99.90
45283;DHT22;31023;44.994;1.796;2022-10-18T06:40:23;18.00;99.90
45283;DHT22;31023;44.994;1.796;2022-10-18T06:42:48;18.20;99.90
45283;DHT22;31023;44.994;1.796;2022-10-18T06:45:14;18.40;99.90
45283;DHT22;31023;44.994;1.796;2022-10-18T06:47:42;18.60;99.90
45283;DHT22;31023;44.994;1.796;2022-10-18T06:50:08;18.80;99.90
45283;DHT22;31023;44.994;1.796;2022-10-18T06:52:33;19.00;99.90
45283;DHT22;31023;44.994;1.796;2022-10-18T06:54:59;19.10;99.90
45283;DHT22;31023;44.994;1.796;2022-10-18T06:57:24;19.20;99.90
45283;DHT22;31023;44.994;1.796;2022-10-18T06:59:50;19.50;99.90
45283;DHT22;31023;44.994;1.796;2022-10-18T07:02:16;19.60;99.90
45283;DHT22;31023;44.994;1.796;2022-10-18T07:04:42;19.80;99.90
45283;DHT22;31023;44.994;1.796;2022-10-18T07:07:07;20.00;99.90
45283;DHT22;31023;44.994;1.796;2022-10-18T07:09:33;20.30;99.90
45283;DHT22;31023;44.994;1.796;2022-10-18T07:11:58;20.40;99.90
45283;DHT22;31023;44.994;1.796;2022-10-18T07:14:24;20.70;99.90
45283;DHT22;31023;44.994;1.796;2022-10-18T07:16:50;20.90;99.90
45283;DHT22;31023;44.994;1.796;2022-10-18T07:19:15;20.90;99.90
45283;DHT22;31023;44.994;1.796;2022-10-18T07:21:41;21.10;99.90
45283;DHT22;31023;44.994;1.796;2022-10-18T07:24:06;21.10;99.90
45283;DHT22;31023;44.994;1.796;2022-10-18T07:26:33;21.20;99.90
45283;DHT22;31023;44.994;1.796;2022-10-18T07:29:09;21.40;99.90
45283;DHT22;31023;44.994;1.796;2022-10-18T07:31:35;21.60;99.90
45283;DHT22;31023;44.994;1.796;2022-10-18T07:34:03;21.80;99.90
45283;DHT22;31023;44.994;1.796;2022-10-18T07:36:29;21.70;99.90
45283;DHT22;31023;44.994;1.796;2022-10-18T07:38:54;21.70;99.90
45283;DHT22;31023;44.994;1.796;2022-10-18T07:41:20;21.90;99.90
45283;DHT22;31023;44.994;1.796;2022-10-18T07:43:48;21.90;99.90
45283;DHT22;31023;44.994;1.796;2022-10-18T07:46:15;21.80;99.90
45283;DHT22;31023;44.994;1.796;2022-10-18T07:48:40;21.90;99.90
45283;DHT22;31023;44.994;1.796;2022-10-18T07:51:06;21.90;99.90
45283;DHT22;31023;44.994;1.796;2022-10-18T07:53:31;22.10;99.90
45283;DHT22;31023;44.994;1.796;2022-10-18T07:56:09;22.40;99.90
45283;DHT22;31023;44.994;1.796;2022-10-18T07:58:40;22.70;99.90
45283;DHT22;31023;44.994;1.796;2022-10-18T08:01:06;22.60;99.90
45283;DHT22;31023;44.994;1.796;2022-10-18T08:03:32;22.90;99.90
45283;DHT22;31023;44.994;1.796;2022-10-18T08:05:58;22.70;99.90
45283;DHT22;31023;44.994;1.796;2022-10-18T08:08:23;22.80;99.90
45283;DHT22;31023;44.994;1.796;2022-10-18T08:10:49;22.90;99.90
45283;DHT22;31023;44.994;1.796;2022-10-18T08:13:15;23.10;99.90
45283;DHT22;31023;44.994;1.796;2022-10-18T08:15:41;23.30;99.40
45283;DHT22;31023;44.994;1.796;2022-10-18T08:18:06;23.20;99.20
45283;DHT22;31023;44.994;1.796;2022-10-18T08:20:32;23.40;99.50
45283;DHT22;31023;44.994;1.796;2022-10-18T08:22:58;23.40;98.90
45283;DHT22;31023;44.994;1.796;2022-10-18T08:25:23;23.40;98.70
45283;DHT22;31023;44.994;1.796;2022-10-18T08:27:49;23.50;99.30
45283;DHT22;31023;44.994;1.796;2022-10-18T08:30:15;23.60;98.00
45283;DHT22;31023;44.994;1.796;2022-10-18T08:32:40;23.70;99.00
45283;DHT22;31023;44.994;1.796;2022-10-18T08:35:06;24.10;97.90
45283;DHT22;31023;44.994;1.796;2022-10-18T08:37:32;24.40;97.50
45283;DHT22;31023;44.994;1.796;2022-10-18T08:39:57;24.00;97.00
45283;DHT22;31023;44.994;1.796;2022-10-18T08:44:58;23.70;96.30
45283;DHT22;31023;44.994;1.796;2022-10-18T08:47:33;24.30;97.30
45283;DHT22;31023;44.994;1.796;2022-10-18T08:50:03;24.10;96.50
45283;DHT22;31023;44.994;1.796;2022-10-18T08:52:34;24.30;96.10
45283;DHT22;31023;44.994;1.796;2022-10-18T08:55:04;24.80;96.20
45283;DHT22;31023;44.994;1.796;2022-10-18T08:57:34;24.80;95.70
45283;DHT22;31023;44.994;1.796;2022-10-18T09:00:00;24.60;95.10
45283;DHT22;31023;44.994;1.796;2022-10-18T09:05:11;24.80;94.90
45283;DHT22;31023;44.994;1.796;2022-10-18T09:20:57;25.90;93.80
45283;DHT22;31023;44.994;1.796;2022-10-18T09:26:08;24.90;92.70
45283;DHT22;31023;44.994;1.796;2022-10-18T09:36:20;24.80;93.30
45283;DHT22;31023;44.994;1.796;2022-10-18T09:38:56;24.90;93.70
45283;DHT22;31023;44.994;1.796;2022-10-18T09:44:01;24.60;94.00
45283;DHT22;31023;44.994;1.796;2022-10-18T09:46:32;25.10;94.70
45283;DHT22;31023;44.994;1.796;2022-10-18T09:49:12;24.80;93.70
45283;DHT22;31023;44.994;1.796;2022-10-18T09:51:39;24.80;93.70
45283;DHT22;31023;44.994;1.796;2022-10-18T09:56:39;24.80;94.00
45283;DHT22;31023;44.994;1.796;2022-10-18T09:59:08;24.40;95.00
45283;DHT22;31023;44.994;1.796;2022-10-18T10:01:41;24.70;95.50
45283;DHT22;31023;44.994;1.796;2022-10-18T10:04:07;24.50;93.90
45283;DHT22;31023;44.994;1.796;2022-10-18T10:06:32;24.50;94.10
45283;DHT22;31023;44.994;1.796;2022-10-18T10:09:12;24.40;93.90
45283;DHT22;31023;44.994;1.796;2022-10-18T10:11:42;24.50;93.80
45283;DHT22;31023;44.994;1.796;2022-10-18T10:14:13;24.80;92.80
45283;DHT22;31023;44.994;1.796;2022-10-18T10:16:45;24.70;92.10
45283;DHT22;31023;44.994;1.796;2022-10-18T10:19:15;24.60;92.20
45283;DHT22;31023;44.994;1.796;2022-10-18T10:21:41;24.90;91.80
45283;DHT22;31023;44.994;1.796;2022-10-18T10:24:13;24.60;91.40
45283;DHT22;31023;44.994;1.796;2022-10-18T10:26:40;24.60;91.70
45283;DHT22;31023;44.994;1.796;2022-10-18T10:32:00;24.40;91.50
45283;DHT22;31023;44.994;1.796;2022-10-18T10:34:26;24.40;91.90
45283;DHT22;31023;44.994;1.796;2022-10-18T10:36:53;24.40;91.30
45283;DHT22;31023;44.994;1.796;2022-10-18T10:39:20;24.40;92.00
45283;DHT22;31023;44.994;1.796;2022-10-18T10:41:46;24.40;91.70
45283;DHT22;31023;44.994;1.796;2022-10-18T10:44:13;24.40;91.30
45283;DHT22;31023;44.994;1.796;2022-10-18T10:46:39;24.30;91.60
45283;DHT22;31023;44.994;1.796;2022-10-18T10:49:05;24.40;91.50
45283;DHT22;31023;44.994;1.796;2022-10-18T10:51:32;24.40;92.00
45283;DHT22;31023;44.994;1.796;2022-10-18T10:54:00;24.40;91.40
45283;DHT22;31023;44.994;1.796;2022-10-18T10:56:30;24.50;91.70
45283;DHT22;31023;44.994;1.796;2022-10-18T10:58:59;24.40;92.40
45283;DHT22;31023;44.994;1.796;2022-10-18T11:01:31;24.40;91.40
45283;DHT22;31023;44.994;1.796;2022-10-18T11:03:58;24.30;91.50
45283;DHT22;31023;44.994;1.796;2022-10-18T11:06:29;24.30;90.80
45283;DHT22;31023;44.994;1.796;2022-10-18T11:08:56;24.20;91.50
45283;DHT22;31023;44.994;1.796;2022-10-18T11:11:24;24.30;91.80
45283;DHT22;31023;44.994;1.796;2022-10-18T11:13:57;24.30;92.30
45283;DHT22;31023;44.994;1.796;2022-10-18T11:16:32;24.20;91.90
45283;DHT22;31023;44.994;1.796;2022-10-18T11:19:01;24.20;91.30
45283;DHT22;31023;44.994;1.796;2022-10-18T11:21:28;24.20;92.00
45283;DHT22;31023;44.994;1.796;2022-10-18T11:23:53;24.20;91.40
45283;DHT22;31023;44.994;1.796;2022-10-18T11:26:39;24.10;91.40
45283;DHT22;31023;44.994;1.796;2022-10-18T11:29:15;24.00;91.70
45283;DHT22;31023;44.994;1.796;2022-10-18T11:39:06;24.20;90.70
45283;DHT22;31023;44.994;1.796;2022-10-18T11:41:37;24.10;91.10
45283;DHT22;31023;44.994;1.796;2022-10-18T12:04:37;24.20;90.80
45283;DHT22;31023;44.994;1.796;2022-10-18T12:07:05;24.20;91.40
45283;DHT22;31023;44.994;1.796;2022-10-18T12:09:40;24.30;91.30
45283;DHT22;31023;44.994;1.796;2022-10-18T12:14:36;24.20;90.60
45283;DHT22;31023;44.994;1.796;2022-10-18T12:17:17;24.20;91.40
45283;DHT22;31023;44.994;1.796;2022-10-18T12:19:44;24.20;90.50
45283;DHT22;31023;44.994;1.796;2022-10-18T12:22:27;24.10;90.20
45283;DHT22;31023;44.994;1.796;2022-10-18T12:24:54;24.10;90.80
45283;DHT22;31023;44.994;1.796;2022-10-18T12:27:22;24.30;90.90
45283;DHT22;31023;44.994;1.796;2022-10-18T12:29:49;24.20;91.20
45283;DHT22;31023;44.994;1.796;2022-10-18T12:32:19;24.30;91.00
45283;DHT22;31023;44.994;1.796;2022-10-18T12:34:48;24.30;90.90
45283;DHT22;31023;44.994;1.796;2022-10-18T12:39:55;24.20;91.30
45283;DHT22;31023;44.994;1.796;2022-10-18T12:42:23;24.20;91.40
45283;DHT22;31023;44.994;1.796;2022-10-18T12:45:00;24.30;91.30
45283;DHT22;31023;44.994;1.796;2022-10-18T12:47:27;24.30;91.50
45283;DHT22;31023;44.994;1.796;2022-10-18T12:49:57;24.30;91.00
45283;DHT22;31023;44.994;1.796;2022-10-18T12:52:23;24.30;91.00
45283;DHT22;31023;44.994;1.796;2022-10-18T12:55:00;24.30;91.30
45283;DHT22;31023;44.994;1.796;2022-10-18T12:57:25;24.20;91.30
45283;DHT22;31023;44.994;1.796;2022-10-18T13:00:40;24.20;91.00
45283;DHT22;31023;44.994;1.796;2022-10-18T13:19:00;24.30;90.70
45283;DHT22;31023;44.994;1.796;2022-10-18T13:29:36;24.10;90.40
45283;DHT22;31023;44.994;1.796;2022-10-18T13:32:17;24.00;90.30
45283;DHT22;31023;44.994;1.796;2022-10-18T13:34:46;24.10;90.90
45283;DHT22;31023;44.994;1.796;2022-10-18T13:39:37;24.20;90.90
45283;DHT22;31023;44.994;1.796;2022-10-18T13:44:39;24.20;91.00
45283;DHT22;31023;44.994;1.796;2022-10-18T13:57:18;24.20;90.20
45283;DHT22;31023;44.994;1.796;2022-10-18T14:07:20;23.80;91.20
45283;DHT22;31023;44.994;1.796;2022-10-18T14:09:47;23.80;91.00
45283;DHT22;31023;44.994;1.796;2022-10-18T14:12:37;23.90;90.90
45283;DHT22;31023;44.994;1.796;2022-10-18T14:17:30;23.90;91.30
45283;DHT22;31023;44.994;1.796;2022-10-18T14:20:05;24.00;90.80
45283;DHT22;31023;44.994;1.796;2022-10-18T14:22:40;23.90;91.30
45283;DHT22;31023;44.994;1.796;2022-10-18T14:27:45;23.90;92.50
45283;DHT22;31023;44.994;1.796;2022-10-18T14:32:37;23.90;92.20
45283;DHT22;31023;44.994;1.796;2022-10-18T14:35:14;24.00;92.00
45283;DHT22;31023;44.994;1.796;2022-10-18T14:37:40;23.90;92.30
45283;DHT22;31023;44.994;1.796;2022-10-18T14:40:20;24.00;91.20
45283;DHT22;31023;44.994;1.796;2022-10-18T14:42:49;23.90;91.90
45283;DHT22;31023;44.994;1.796;2022-10-18T14:45:21;23.90;91.50
45283;DHT22;31023;44.994;1.796;2022-10-18T14:47:47;23.90;91.70
45283;DHT22;31023;44.994;1.796;2022-10-18T14:50:19;23.90;91.70
45283;DHT22;31023;44.994;1.796;2022-10-18T14:52:45;23.80;92.50
45283;DHT22;31023;44.994;1.796;2022-10-18T14:55:14;23.80;92.50
45283;DHT22;31023;44.994;1.796;2022-10-18T14:57:42;23.80;92.10
45283;DHT22;31023;44.994;1.796;2022-10-18T15:00:08;23.80;92.50
45283;DHT22;31023;44.994;1.796;2022-10-18T15:02:40;23.80;92.00
45283;DHT22;31023;44.994;1.796;2022-10-18T15:07:31;23.80;92.50
45283;DHT22;31023;44.994;1.796;2022-10-18T15:09:58;23.80;92.60
45283;DHT22;31023;44.994;1.796;2022-10-18T15:12:24;23.70;92.80
45283;DHT22;31023;44.994;1.796;2022-10-18T15:14:50;23.70;92.80
45283;DHT22;31023;44.994;1.796;2022-10-18T15:17:23;23.60;93.30
45283;DHT22;31023;44.994;1.796;2022-10-18T15:19:54;23.60;93.00
45283;DHT22;31023;44.994;1.796;2022-10-18T15:22:24;23.60;92.60
45283;DHT22;31023;44.994;1.796;2022-10-18T15:25:05;23.60;92.40
45283;DHT22;31023;44.994;1.796;2022-10-18T15:27:34;23.60;92.60
45283;DHT22;31023;44.994;1.796;2022-10-18T15:30:07;23.50;92.60
45283;DHT22;31023;44.994;1.796;2022-10-18T15:32:35;23.40;93.00
45283;DHT22;31023;44.994;1.796;2022-10-18T15:35:21;23.50;93.00
45283;DHT22;31023;44.994;1.796;2022-10-18T15:37:47;23.50;93.00
45283;DHT22;31023;44.994;1.796;2022-10-18T15:42:42;23.40;93.60
45283;DHT22;31023;44.994;1.796;2022-10-18T15:50:43;23.50;93.40
45283;DHT22;31023;44.994;1.796;2022-10-18T15:58:24;23.30;94.10
45283;DHT22;31023;44.994;1.796;2022-10-18T16:00:50;23.10;94.50
45283;DHT22;31023;44.994;1.796;2022-10-18T16:03:17;23.20;94.40
45283;DHT22;31023;44.994;1.796;2022-10-18T16:05:43;23.30;94.30
45283;DHT22;31023;44.994;1.796;2022-10-18T16:08:19;23.20;94.30
45283;DHT22;31023;44.994;1.796;2022-10-18T16:10:45;23.10;94.80
45283;DHT22;31023;44.994;1.796;2022-10-18T16:13:11;23.10;94.90
45283;DHT22;31023;44.994;1.796;2022-10-18T16:15:36;23.00;95.20
45283;DHT22;31023;44.994;1.796;2022-10-18T16:18:02;23.00;95.30
45283;DHT22;31023;44.994;1.796;2022-10-18T16:20:27;23.00;95.40
45283;DHT22;31023;44.994;1.796;2022-10-18T16:22:53;23.00;95.30
45283;DHT22;31023;44.994;1.796;2022-10-18T16:25:18;23.00;95.50
45283;DHT22;31023;44.994;1.796;2022-10-18T16:27:44;22.80;95.70
45283;DHT22;31023;44.994;1.796;2022-10-18T16:30:11;22.80;95.80
45283;DHT22;31023;44.994;1.796;2022-10-18T16:32:37;22.80;95.70
45283;DHT22;31023;44.994;1.796;2022-10-18T16:35:03;22.70;96.30
45283;DHT22;31023;44.994;1.796;2022-10-18T16:37:29;22.70;96.30
45283;DHT22;31023;44.994;1.796;2022-10-18T16:39:54;22.60;96.40
45283;DHT22;31023;44.994;1.796;2022-10-18T16:42:20;22.50;96.70
45283;DHT22;31023;44.994;1.796;2022-10-18T16:44:45;22.40;97.20
45283;DHT22;31023;44.994;1.796;2022-10-18T16:47:12;22.50;97.20
45283;DHT22;31023;44.994;1.796;2022-10-18T16:49:37;22.40;97.40
45283;DHT22;31023;44.994;1.796;2022-10-18T16:52:04;22.30;97.60
45283;DHT22;31023;44.994;1.796;2022-10-18T16:54:29;22.20;98.00
45283;DHT22;31023;44.994;1.796;2022-10-18T16:56:55;22.10;98.10
45283;DHT22;31023;44.994;1.796;2022-10-18T16:59:27;22.10;98.20
45283;DHT22;31023;44.994;1.796;2022-10-18T17:01:53;22.10;98.30
45283;DHT22;31023;44.994;1.796;2022-10-18T17:04:20;22.00;98.60
45283;DHT22;31023;44.994;1.796;2022-10-18T17:06:45;22.10;98.30
45283;DHT22;31023;44.994;1.796;2022-10-18T17:09:13;22.10;98.50
45283;DHT22;31023;44.994;1.796;2022-10-18T17:11:39;21.90;98.60
45283;DHT22;31023;44.994;1.796;2022-10-18T17:14:04;21.90;98.50
45283;DHT22;31023;44.994;1.796;2022-10-18T17:16:31;22.00;98.40
45283;DHT22;31023;44.994;1.796;2022-10-18T17:18:58;21.90;98.60
45283;DHT22;31023;44.994;1.796;2022-10-18T17:21:24;21.90;98.40
45283;DHT22;31023;44.994;1.796;2022-10-18T17:23:51;21.80;98.50
45283;DHT22;31023;44.994;1.796;2022-10-18T17:26:18;21.80;98.50
45283;DHT22;31023;44.994;1.796;2022-10-18T17:28:43;21.80;98.60
45283;DHT22;31023;44.994;1.796;2022-10-18T17:31:09;21.60;99.00
45283;DHT22;31023;44.994;1.796;2022-10-18T17:33:35;21.60;98.80
45283;DHT22;31023;44.994;1.796;2022-10-18T17:36:01;21.50;98.80
45283;DHT22;31023;44.994;1.796;2022-10-18T17:38:27;21.60;98.70
45283;DHT22;31023;44.994;1.796;2022-10-18T17:40:52;21.50;98.80
45283;DHT22;31023;44.994;1.796;2022-10-18T17:43:19;21.40;99.10
45283;DHT22;31023;44.994;1.796;2022-10-18T17:45:45;21.40;99.20
45283;DHT22;31023;44.994;1.796;2022-10-18T17:48:12;21.40;99.30
45283;DHT22;31023;44.994;1.796;2022-10-18T17:50:40;21.20;99.90
45283;DHT22;31023;44.994;1.796;2022-10-18T17:53:06;21.10;99.90
45283;DHT22;31023;44.994;1.796;2022-10-18T17:55:35;21.10;99.90
45283;DHT22;31023;44.994;1.796;2022-10-18T17:58:00;21.00;99.90
45283;DHT22;31023;44.994;1.796;2022-10-18T18:00:26;21.00;99.90
45283;DHT22;31023;44.994;1.796;2022-10-18T18:02:55;20.90;99.90
45283;DHT22;31023;44.994;1.796;2022-10-18T18:05:21;20.80;99.90